Satellite Precipitation Estimates (TXUS20 KWBC)
Issued by NWS

Home | Current Version | Previous Version | Text Only | Print | Product List | Glossary On
Versions: 1 2 3 4 5 6
341
SPTD31 TTPP 231547
SPECI
TTCP 231542Z 11013KT 9999 TS VCSH BKN014CB 30/26 Q1013
TEMPO TSRA RMK CB SE VCSH SW=



USA.gov is the U.S. government's official web portal to all federal, state and local government web resources and services.